Tropical Cyclones
[Index]
Main Index Home Page Stock Weather Photos Extreme Storms Discussion Storm News and Storm Chasing Reports Tropical Cyclones / Hurricanes / Typhoons Weather Data and Links Wild Fires / Bushfires Weather Observation Techniques Weather Picture Catalogue Tornado Pictures and Reports Stock Video Footage and DVDs for sale
Season 1982-1983 Tropical Cyclone NAOMI Track Map
Season 1982-1983 Summaries: [BoM-AU] [JTWC-AU] [JTWC-SIO] [JTWC-SPAC] [JTWC-SH]
<<- Previous TC | BoM 1982-1983 Season | Next TC ->>

click for intensity scale information  Lat/long Grid: Show Hide

 Date Labels: Show Hide

Bureau of Meteorology Tropical Cyclone Data

Name: NAOMI
Number: 641 / 198283_06

21 Apr 1983 00:00 UTC to 02 May 1983 06:00 UTC

    date/time    lat    long    hPa   cat  kts
1983-04-21 00   13.7    81.5   1005                     
1983-04-21 06   13.3    81.4   1003                     
1983-04-21 12   12.8    81.4   1001                     
1983-04-21 18   12.3    81.3    998                     
1983-04-22 00   11.6    81.2    996                     
1983-04-22 06   11.0    81.1    994    1                
1983-04-22 12   10.5    81.1    992    1                
1983-04-22 18   10.1    81.2    991    1                
1983-04-23 00    9.8    81.3    985    2                
1983-04-23 06    9.4    81.6    980    2                
1983-04-23 12    9.4    82.1    977    2                
1983-04-23 18    9.4    82.2    974    2                
1983-04-24 00    9.5    82.4    970    3                
1983-04-24 06    9.6    82.6    968    3                
1983-04-24 12    9.7    82.7    965    3                
1983-04-24 18    9.8    82.9    963    3                
1983-04-25 00   10.0    83.3    960    3                
1983-04-25 06   10.3    84.0    960    3                
1983-04-25 12   10.8    84.7    960    3                
1983-04-25 18   11.2    85.5    960    3                
1983-04-26 00   11.6    86.2    960    3                
1983-04-26 06   12.0    87.4    960    3                
1983-04-26 12   12.7    88.6    960    3                
1983-04-26 18   13.1    89.9    960    3                
1983-04-27 00   13.3    90.8    960    3                
1983-04-27 06   13.7    91.7    960    3                
1983-04-27 12   14.3    92.7    960    3                
1983-04-27 18   15.0    93.7    960    3                
1983-04-28 00   15.2    94.0    960    3                
1983-04-28 06   15.5    94.5    964    3                
1983-04-28 12   15.7    94.7    968    3                
1983-04-28 18   16.0    95.0    972    2                
1983-04-29 00   16.3    95.3    976    2                
1983-04-29 06   16.7    95.4    980    2                
1983-04-29 12   16.8    96.0    986    1                
1983-04-29 18   16.5    95.9    989    1                
1983-04-30 00   16.2    95.3    994    1                
1983-04-30 06   16.0    94.8    996                     
1983-04-30 12   15.8    94.3    998                     
1983-04-30 18   15.7    93.8   1000                     
1983-05-01 00   15.3    93.0   1003                     
1983-05-01 06   14.8    92.3   1005                     
1983-05-01 12   14.4    91.7   1005                     
1983-05-01 18   14.0    91.3   1005                     
1983-05-02 00   13.2    90.5   1006                     
1983-05-02 06   12.0    88.5   1008                     
Winds are 10-min average.

Tropical cyclone tracks developed by Michael Bath using data from the Bureau of Meteorology and Google Maps.


[Australian Severe Weather index] [Copyright Notice] [Email Contacts] [Search This Site] [Privacy Policy]
Document: tropical_cyclone_naomi.htm Updated: 30 May 2013